Time;durP1;ratioP1;P1;durP2;ratioP2;P2;SDS_P1;SDS_P2;PMS_P1;PMS_P2;Temp;Humidity;BMP_temperature;BMP_pressure;BME280_temperature;BME280_humidity;BME280_pressure;Samples;Min_cycle;Max_cycle;Signal;HPM_P1;HPM_P2
2022/01/14 00:00:53;;;;;;;36.17;14.13;;;;;;;2.96;100.00;103701.47;5025089;28;20044;-56
2022/01/14 00:03:21;;;;;;;34.22;13.75;;;;;;;2.91;100.00;103700.53;5031979;28;20030;-56
2022/01/14 00:05:51;;;;;;;34.85;14.23;;;;;;;2.88;100.00;103698.78;5031861;28;20080;-56
2022/01/14 00:08:19;;;;;;;38.72;15.15;;;;;;;2.92;100.00;103696.22;5001148;28;1135820;-56
2022/01/14 00:10:49;;;;;;;35.42;15.10;;;;;;;2.90;100.00;103685.78;5072453;28;20118;-55
2022/01/14 00:13:40;;;;;;;32.40;13.85;;;;;;;2.87;100.00;103685.75;5072467;28;20038;-55
2022/01/14 00:16:06;;;;;;;34.92;14.77;;;;;;;2.80;100.00;103684.81;5070331;28;20048;-56
2022/01/14 00:18:34;;;;;;;32.85;14.95;;;;;;;2.81;100.00;103685.66;5072650;28;20041;-56
2022/01/14 00:21:04;;;;;;;34.03;15.13;;;;;;;2.86;100.00;103684.91;5066562;28;20063;-55
2022/01/14 00:23:36;;;;;;;35.00;15.88;;;;;;;2.84;100.00;103681.38;5073253;28;20487;-55
2022/01/14 00:31:43;;;;;;;40.83;16.52;;;;;;;2.87;100.00;103686.63;5073067;28;20382;-56
2022/01/14 00:34:12;;;;;;;35.45;15.68;;;;;;;2.83;100.00;103687.44;5070848;28;20044;-55
2022/01/14 00:36:42;;;;;;;36.67;15.27;;;;;;;2.84;100.00;103685.72;5072829;28;20057;-55
2022/01/14 00:39:12;;;;;;;37.15;15.65;;;;;;;2.77;100.00;103682.19;5074696;28;20048;-56
2022/01/14 00:41:41;;;;;;;35.13;15.07;;;;;;;2.75;100.00;103683.88;5074773;28;20063;-56
2022/01/14 00:44:12;;;;;;;35.92;15.55;;;;;;;2.78;100.00;103681.34;5073367;28;20048;-54
2022/01/14 00:46:42;;;;;;;34.90;14.77;;;;;;;2.82;100.00;103682.22;5074662;28;20059;-56
2022/01/14 00:49:11;;;;;;;35.45;14.32;;;;;;;2.85;100.00;103674.44;5074688;28;20048;-56
2022/01/14 00:51:39;;;;;;;31.38;14.70;;;;;;;2.83;100.00;103666.63;5074743;28;20086;-50
2022/01/14 00:54:10;;;;;;;36.35;15.05;;;;;;;2.83;100.00;103670.97;5074124;28;20063;-54
2022/01/14 00:56:48;;;;;;;35.10;14.65;;;;;;;2.85;100.00;103654.56;5074052;28;20403;-53
2022/01/14 00:59:17;;;;;;;34.90;14.98;;;;;;;2.94;100.00;103660.72;5073859;28;20049;-53
2022/01/14 01:01:48;;;;;;;37.92;16.10;;;;;;;2.85;100.00;103662.34;5073892;28;20037;-54
2022/01/14 01:04:18;;;;;;;33.65;15.30;;;;;;;2.86;100.00;103671.00;5070319;28;20072;-52
2022/01/14 01:06:48;;;;;;;31.00;14.30;;;;;;;2.83;100.00;103666.63;5072158;28;20048;-53
2022/01/14 01:09:17;;;;;;;32.83;14.88;;;;;;;2.81;100.00;103655.38;5074085;28;20507;-54
2022/01/14 01:11:51;;;;;;;30.27;14.10;;;;;;;2.81;100.00;103651.88;5073805;28;20060;-52
2022/01/14 01:14:27;;;;;;;33.50;14.60;;;;;;;2.80;100.00;103652.75;5073445;28;20502;-51
2022/01/14 01:16:55;;;;;;;32.80;15.30;;;;;;;2.83;100.00;103651.03;5074285;28;20052;-52
2022/01/14 01:19:23;;;;;;;34.85;15.75;;;;;;;2.84;100.00;103649.34;5073881;28;20053;-52
2022/01/14 01:21:53;;;;;;;35.65;14.75;;;;;;;2.86;100.00;103650.22;5073950;28;20056;-52
2022/01/14 01:24:22;;;;;;;33.88;15.32;;;;;;;2.88;100.00;103645.91;5072569;28;20036;-51
2022/01/14 01:26:51;;;;;;;35.90;16.05;;;;;;;2.84;100.00;103644.13;5072600;28;20415;-53
2022/01/14 01:29:43;;;;;;;38.17;16.25;;;;;;;2.88;100.00;103641.59;5072767;28;20049;-52
2022/01/14 01:32:11;;;;;;;34.75;16.33;;;;;;;2.87;100.00;103642.44;5069534;28;20407;-51
2022/01/14 01:34:39;;;;;;;36.45;14.73;;;;;;;2.91;100.00;103640.75;5072312;28;20044;-52
2022/01/14 01:37:07;;;;;;;37.05;15.20;;;;;;;2.85;100.00;103641.56;5070911;28;20059;-52
2022/01/14 01:39:37;;;;;;;35.65;16.25;;;;;;;2.92;100.00;103649.41;5069553;28;20141;-53
2022/01/14 01:42:08;;;;;;;36.17;15.20;;;;;;;2.89;100.00;103650.28;5072721;28;20060;-52
2022/01/14 01:44:39;;;;;;;39.08;16.15;;;;;;;2.89;100.00;103647.66;5068200;28;20053;-53
2022/01/14 01:47:07;;;;;;;35.10;16.10;;;;;;;2.90;100.00;103644.19;5071062;28;20051;-51
2022/01/14 01:49:38;;;;;;;36.05;16.00;;;;;;;2.90;100.00;103652.00;5073573;28;20045;-49
2022/01/14 01:52:08;;;;;;;38.55;16.88;;;;;;;2.85;100.00;103649.34;5073458;28;20041;-53
2022/01/14 01:54:37;;;;;;;38.00;16.88;;;;;;;2.85;100.00;103644.16;5073398;28;20052;-53
2022/01/14 01:57:06;;;;;;;39.88;17.50;;;;;;;2.82;100.00;103636.31;5073333;28;20045;-51
2022/01/14 01:59:34;;;;;;;33.53;15.48;;;;;;;2.82;100.00;103640.63;5073357;28;20041;-53
2022/01/14 02:02:03;;;;;;;37.42;15.63;;;;;;;2.78;100.00;103634.53;5073116;28;20541;-50
2022/01/14 02:04:32;;;;;;;39.00;17.67;;;;;;;2.80;100.00;103630.22;5073008;28;20044;-50
2022/01/14 02:07:00;;;;;;;37.33;16.02;;;;;;;2.79;100.00;103633.66;5072924;28;20048;-51
2022/01/14 02:09:28;;;;;;;38.40;16.55;;;;;;;2.82;100.00;103632.84;5072888;28;20093;-54
2022/01/14 02:11:57;;;;;;;40.00;17.80;;;;;;;2.82;100.00;103628.53;5073034;28;20052;-53
2022/01/14 02:14:54;;;;;;;37.15;16.83;;;;;;;2.83;100.00;103634.59;5072725;28;20047;-53
2022/01/14 02:17:32;;;;;;;33.65;15.23;;;;;;;2.85;100.00;103628.56;5068341;28;20052;-54
2022/01/14 02:22:53;;;;;;;38.17;16.88;;;;;;;2.75;100.00;103625.81;5072831;28;20501;-49
2022/01/14 02:25:28;;;;;;;40.08;17.90;;;;;;;2.71;100.00;103624.91;5068179;28;20045;-56
2022/01/14 02:27:58;;;;;;;35.35;14.70;;;;;;;2.68;100.00;103624.88;5069637;28;20049;-55
2022/01/14 02:30:27;;;;;;;35.30;16.00;;;;;;;2.68;100.00;103622.28;5072588;28;20518;-52
2022/01/14 02:32:55;;;;;;;34.38;15.27;;;;;;;2.63;100.00;103610.94;5072373;28;20078;-53
2022/01/14 02:35:25;;;;;;;36.50;15.98;;;;;;;2.63;100.00;103608.34;5072143;28;20056;-56
2022/01/14 02:37:53;;;;;;;40.72;17.10;;;;;;;2.62;100.00;103610.09;5069609;28;20059;-54
2022/01/14 02:40:22;;;;;;;40.50;15.95;;;;;;;2.60;100.00;103603.97;5068992;28;20457;-56
2022/01/14 02:42:51;;;;;;;44.42;17.05;;;;;;;2.66;100.00;103613.59;5072330;28;20055;-53
2022/01/14 02:45:21;;;;;;;40.35;16.88;;;;;;;2.66;100.00;103608.41;5072159;28;20041;-55
2022/01/14 02:47:50;;;;;;;36.88;15.48;;;;;;;2.63;100.00;103608.34;5072449;28;20048;-50
2022/01/14 02:50:21;;;;;;;37.05;16.50;;;;;;;2.58;100.00;103605.69;5071930;28;20056;-57
2022/01/14 02:53:01;;;;;;;34.38;16.27;;;;;;;2.47;100.00;103610.75;5069166;28;20056;-51
2022/01/14 02:55:31;;;;;;;37.70;16.35;;;;;;;2.53;100.00;103603.03;5069391;28;20510;-51
2022/01/14 02:58:00;;;;;;;39.38;16.48;;;;;;;2.57;100.00;103592.69;5071910;28;20049;-56
2022/01/14 03:00:31;;;;;;;35.40;16.83;;;;;;;2.58;100.00;103597.00;5071990;28;20052;-53
2022/01/14 03:03:01;;;;;;;31.80;15.13;;;;;;;2.59;100.00;103596.16;5072014;28;20044;-53
2022/01/14 03:05:31;;;;;;;34.45;16.85;;;;;;;2.64;100.00;103594.50;5072250;28;20052;-53
2022/01/14 03:08:00;;;;;;;37.90;17.10;;;;;;;2.70;100.00;103597.19;5071984;28;20131;-53
2022/01/14 03:10:29;;;;;;;34.58;14.30;;;;;;;2.75;100.00;103603.28;5072100;28;20045;-50
2022/01/14 03:12:57;;;;;;;34.45;16.27;;;;;;;2.70;100.00;103599.78;5072077;28;20073;-53
2022/01/14 03:15:25;;;;;;;34.50;16.17;;;;;;;2.64;100.00;103602.31;5065962;28;20407;-53
2022/01/14 03:17:53;;;;;;;33.80;15.88;;;;;;;2.66;100.00;103592.81;5068732;28;20090;-56
2022/01/14 03:20:45;;;;;;;35.35;14.98;;;;;;;2.59;100.00;103590.97;5071943;28;20491;-55
2022/01/14 03:23:17;;;;;;;40.50;16.50;;;;;;;2.63;100.00;103582.34;5071970;28;20048;-57
2022/01/14 03:25:50;;;;;;;35.92;16.25;;;;;;;2.63;100.00;103574.56;5072111;28;20139;-53
2022/01/14 03:28:21;;;;;;;30.52;14.25;;;;;;;2.65;100.00;103581.53;5072043;28;20048;-51
2022/01/14 03:30:50;;;;;;;34.72;15.70;;;;;;;2.65;100.00;103585.88;5071536;28;20135;-56
2022/01/14 03:33:18;;;;;;;34.28;15.35;;;;;;;2.66;100.00;103587.63;5071931;28;20491;-53
2022/01/14 03:35:47;;;;;;;31.45;15.38;;;;;;;2.68;100.00;103581.56;5071884;28;20047;-57
2022/01/14 03:38:17;;;;;;;31.65;15.80;;;;;;;2.67;100.00;103586.75;5071571;28;20055;-55
2022/01/14 03:40:45;;;;;;;32.97;15.75;;;;;;;2.68;100.00;103575.50;5071319;28;20076;-54
2022/01/14 03:43:13;;;;;;;33.13;14.98;;;;;;;2.61;100.00;103576.28;5071428;28;20074;-56
2022/01/14 03:45:41;;;;;;;36.08;16.48;;;;;;;2.57;100.00;103577.09;5071380;28;20048;-56
2022/01/14 03:48:10;;;;;;;39.67;15.15;;;;;;;2.69;100.00;103579.84;5071577;28;20624;-56
2022/01/14 03:50:38;;;;;;;37.45;16.80;;;;;;;2.64;100.00;103589.31;5071792;28;20046;-55
2022/01/14 03:53:06;;;;;;;42.28;16.65;;;;;;;2.58;100.00;103577.13;5071908;28;20422;-54
2022/01/14 03:55:40;;;;;;;32.40;15.43;;;;;;;2.60;100.00;103583.19;5069064;28;20048;-56
2022/01/14 03:58:28;;;;;;;35.78;15.38;;;;;;;2.67;100.00;103591.94;5068450;28;20048;-55
2022/01/14 04:00:56;;;;;;;37.08;14.57;;;;;;;2.71;100.00;103596.31;5069765;28;20053;-55
2022/01/14 04:03:24;;;;;;;31.38;15.02;;;;;;;2.71;100.00;103596.31;5068803;28;20053;-55
2022/01/14 04:05:53;;;;;;;32.65;14.88;;;;;;;2.64;100.00;103595.38;5068704;28;20047;-56
2022/01/14 04:08:21;;;;;;;37.53;15.52;;;;;;;2.67;100.00;103594.53;5068672;28;20102;-56
2022/01/14 04:10:53;;;;;;;33.75;15.38;;;;;;;2.63;100.00;103590.16;5072121;28;20419;-55
2022/01/14 04:13:34;;;;;;;37.33;14.98;;;;;;;2.62;100.00;103581.50;5072081;28;20048;-56
2022/01/14 04:16:02;;;;;;;39.45;16.42;;;;;;;2.56;100.00;103584.00;5073317;28;20056;-55
2022/01/14 04:18:30;;;;;;;42.63;16.15;;;;;;;2.62;100.00;103591.00;5072333;28;20102;-55
2022/01/14 04:20:58;;;;;;;39.85;16.27;;;;;;;2.63;100.00;103585.84;5073177;28;20051;-55
2022/01/14 04:23:26;;;;;;;34.78;15.43;;;;;;;2.63;100.00;103592.75;5071891;28;20052;-54
2022/01/14 04:25:56;;;;;;;36.35;15.35;;;;;;;2.72;100.00;103582.47;5073260;28;20048;-56
2022/01/14 04:28:27;;;;;;;33.88;15.48;;;;;;;2.66;100.00;103572.88;5071987;28;20075;-56
2022/01/14 04:30:56;;;;;;;39.08;16.60;;;;;;;2.67;100.00;103571.16;5072201;28;20047;-55
2022/01/14 04:33:25;;;;;;;38.42;15.70;;;;;;;2.67;100.00;103564.25;5071836;28;20040;-55
2022/01/14 04:35:54;;;;;;;37.97;16.20;;;;;;;2.64;100.00;103558.97;5072843;28;20032;-55
2022/01/14 04:38:23;;;;;;;40.10;16.83;;;;;;;2.59;100.00;103558.09;5072353;28;20047;-56
2022/01/14 04:40:52;;;;;;;39.65;15.88;;;;;;;2.58;100.00;103550.25;5071949;28;20060;-55
2022/01/14 04:43:21;;;;;;;44.33;16.65;;;;;;;2.60;100.00;103546.81;5072032;28;20056;-56
2022/01/14 04:46:24;;;;;;;42.92;17.00;;;;;;;2.62;100.00;103544.22;5065286;28;20067;-56
2022/01/14 04:48:51;;;;;;;36.28;14.90;;;;;;;2.61;100.00;103537.31;5065185;28;20445;-56
2022/01/14 04:51:21;;;;;;;34.88;15.43;;;;;;;2.56;100.00;103533.78;5071387;28;20059;-55
2022/01/14 04:53:50;;;;;;;35.33;15.65;;;;;;;2.59;100.00;103531.22;5072064;28;20060;-56
2022/01/14 04:56:18;;;;;;;35.28;14.55;;;;;;;2.64;100.00;103527.81;5072604;28;20036;-57
2022/01/14 04:58:47;;;;;;;41.50;17.77;;;;;;;2.62;100.00;103531.22;5071768;28;20072;-56
2022/01/14 05:01:15;;;;;;;35.05;15.40;;;;;;;2.58;100.00;103538.16;5069193;28;20044;-56
2022/01/14 05:03:44;;;;;;;43.38;15.70;;;;;;;2.57;100.00;103539.00;5073569;28;20113;-51
2022/01/14 05:06:14;;;;;;;36.90;16.52;;;;;;;2.61;100.00;103532.97;5073027;28;20051;-59
2022/01/14 05:08:42;;;;;;;41.80;17.00;;;;;;;2.56;100.00;103533.78;5070936;28;21054;-55
2022/01/14 05:11:23;;;;;;;38.25;16.15;;;;;;;2.58;100.00;103529.47;5074167;28;20434;-56
2022/01/14 05:13:53;;;;;;;38.47;15.70;;;;;;;2.60;100.00;103526.03;5072440;28;20036;-54
2022/01/14 05:16:21;;;;;;;37.08;16.42;;;;;;;2.62;100.00;103526.94;5071578;28;20036;-51
2022/01/14 05:18:50;;;;;;;40.97;16.45;;;;;;;2.69;100.00;103533.06;5072382;28;20056;-51
2022/01/14 05:21:19;;;;;;;43.22;15.43;;;;;;;2.61;100.00;103530.38;5073092;28;20048;-50
2022/01/14 05:23:47;;;;;;;35.63;14.82;;;;;;;2.65;100.00;103539.09;5073447;28;20499;-53
2022/01/14 05:26:15;;;;;;;37.80;15.50;;;;;;;2.65;100.00;103539.09;5071342;28;20418;-53
2022/01/14 05:28:43;;;;;;;39.80;15.73;;;;;;;2.59;100.00;103536.41;5069559;28;20045;-52
2022/01/14 05:31:13;;;;;;;45.03;15.57;;;;;;;2.56;100.00;103526.00;5072987;28;20491;-50
2022/01/14 05:33:46;;;;;;;36.33;16.52;;;;;;;2.61;100.00;103535.56;5070600;28;20150;-54
2022/01/14 05:36:18;;;;;;;34.05;14.82;;;;;;;2.61;100.00;103537.31;5070034;28;20044;-53
2022/01/14 05:38:47;;;;;;;43.35;18.83;;;;;;;2.62;100.00;103529.53;5071749;28;20048;-54
2022/01/14 05:41:18;;;;;;;38.58;15.90;;;;;;;2.67;100.00;103529.56;5073514;28;20060;-49
2022/01/14 05:43:46;;;;;;;37.97;16.00;;;;;;;2.68;100.00;103528.72;5066809;28;20057;-52
2022/01/14 05:46:16;;;;;;;32.17;15.70;;;;;;;2.69;100.00;103528.72;5069205;28;20036;-51
2022/01/14 05:48:44;;;;;;;33.45;16.15;;;;;;;2.66;100.00;103535.63;5073350;28;20179;-55
2022/01/14 05:51:36;;;;;;;35.83;15.07;;;;;;;2.69;100.00;103546.06;5073571;28;20416;-51
2022/01/14 05:54:05;;;;;;;32.80;15.70;;;;;;;2.72;100.00;103538.28;5070112;28;20053;-53
2022/01/14 05:56:34;;;;;;;29.40;13.75;;;;;;;2.74;100.00;103546.09;5070283;28;20040;-53
2022/01/14 05:59:02;;;;;;;40.72;15.20;;;;;;;2.72;100.00;103535.69;5073328;28;20045;-52
2022/01/14 06:01:31;;;;;;;30.98;14.38;;;;;;;2.72;100.00;103538.28;5073270;28;20048;-52
2022/01/14 06:03:59;;;;;;;30.33;13.10;;;;;;;2.78;100.00;103535.78;5070066;28;20049;-50
2022/01/14 06:06:27;;;;;;;33.35;14.40;;;;;;;2.79;100.00;103523.63;5069750;28;20040;-51
2022/01/14 06:08:56;;;;;;;29.95;14.40;;;;;;;2.79;100.00;103521.91;5071488;28;20053;-49
2022/01/14 06:11:24;;;;;;;34.05;15.02;;;;;;;2.75;100.00;103521.88;5069084;28;20044;-52
2022/01/14 06:13:53;;;;;;;35.42;14.57;;;;;;;2.70;100.00;103519.22;5071518;28;20048;-51
2022/01/14 06:16:21;;;;;;;33.75;15.00;;;;;;;2.72;100.00;103517.50;5072818;28;20075;-52
2022/01/14 06:18:51;;;;;;;33.80;14.25;;;;;;;2.66;100.00;103523.50;5073221;28;20518;-51
2022/01/14 06:21:19;;;;;;;32.20;15.75;;;;;;;2.73;100.00;103515.75;5073176;28;20131;-50
2022/01/14 06:23:47;;;;;;;34.80;14.45;;;;;;;2.68;100.00;103520.91;5071601;28;20532;-52
2022/01/14 06:26:23;;;;;;;33.47;14.48;;;;;;;2.76;100.00;103510.63;5072971;28;20044;-55
2022/01/14 06:28:51;;;;;;;35.03;14.77;;;;;;;2.67;100.00;103506.19;5072662;28;20041;-53
2022/01/14 06:31:20;;;;;;;33.40;16.15;;;;;;;2.70;100.00;103501.91;5072252;28;20059;-56
2022/01/14 06:33:49;;;;;;;33.10;15.10;;;;;;;2.70;100.00;103506.22;5072628;28;20364;-52
2022/01/14 06:36:18;;;;;;;36.20;15.40;;;;;;;2.73;100.00;103510.56;5072404;28;20049;-53
2022/01/14 06:38:47;;;;;;;32.20;13.85;;;;;;;2.69;100.00;103514.88;5072487;28;20056;-56
2022/01/14 06:41:15;;;;;;;36.10;14.68;;;;;;;2.65;100.00;103519.16;5069980;28;20052;-56
2022/01/14 06:43:44;;;;;;;30.63;15.57;;;;;;;2.68;100.00;103520.91;5068551;28;20491;-52
2022/01/14 06:46:12;;;;;;;31.98;13.75;;;;;;;2.72;100.00;103512.31;5072821;28;20063;-56
2022/01/14 06:48:40;;;;;;;51.75;15.48;;;;;;;2.68;100.00;103510.53;5072284;28;20054;-56
2022/01/14 06:51:13;;;;;;;40.40;15.73;;;;;;;2.66;100.00;103500.13;5072488;28;20090;-52
2022/01/14 06:53:47;;;;;;;36.63;15.23;;;;;;;2.63;100.00;103507.00;5072425;28;20045;-51
2022/01/14 06:56:15;;;;;;;35.38;14.77;;;;;;;2.63;100.00;103504.41;5072318;28;20051;-51
2022/01/14 06:58:44;;;;;;;32.63;15.40;;;;;;;2.57;100.00;103501.75;5072776;28;20079;-52
2022/01/14 07:01:12;;;;;;;33.38;15.02;;;;;;;2.63;100.00;103499.19;5071388;28;20059;-54
2022/01/14 07:03:40;;;;;;;39.17;15.23;;;;;;;2.60;100.00;103505.25;5068279;28;20109;-56
2022/01/14 07:06:10;;;;;;;39.83;15.93;;;;;;;2.57;100.00;103491.34;5070803;28;20051;-57
2022/01/14 07:08:38;;;;;;;38.50;14.18;;;;;;;2.61;100.00;103488.78;5071834;28;20055;-56
2022/01/14 07:11:08;;;;;;;33.55;14.75;;;;;;;2.57;100.00;103493.97;5072407;28;20361;-56
2022/01/14 07:13:36;;;;;;;31.23;13.25;;;;;;;2.61;100.00;103500.94;5072153;28;20067;-56
2022/01/14 07:16:05;;;;;;;34.90;15.32;;;;;;;2.59;100.00;103497.44;5072157;28;20072;-53
2022/01/14 07:18:34;;;;;;;31.83;15.07;;;;;;;2.54;100.00;103494.78;5072092;28;20086;-55
2022/01/14 07:21:03;;;;;;;33.75;14.63;;;;;;;2.62;100.00;103505.25;5072406;28;20040;-56
2022/01/14 07:23:31;;;;;;;33.38;14.32;;;;;;;2.59;100.00;103492.22;5071955;28;20052;-52
2022/01/14 07:25:59;;;;;;;34.53;15.40;;;;;;;2.58;100.00;103495.69;5072033;28;20056;-56
2022/01/14 07:28:28;;;;;;;29.77;14.65;;;;;;;2.65;100.00;103508.75;5071760;28;20072;-52
2022/01/14 07:30:57;;;;;;;33.45;14.20;;;;;;;2.57;100.00;103515.59;5071836;28;20045;-53
2022/01/14 07:33:25;;;;;;;30.35;13.90;;;;;;;2.58;100.00;103517.34;5071832;28;20060;-53
2022/01/14 07:35:53;;;;;;;33.30;15.07;;;;;;;2.60;100.00;103520.81;5071952;28;20041;-54
2022/01/14 07:38:21;;;;;;;35.92;15.20;;;;;;;2.56;100.00;103528.59;5071906;28;20041;-53
2022/01/14 07:40:49;;;;;;;34.72;15.35;;;;;;;2.54;100.00;103521.63;5070238;28;20048;-54
2022/01/14 07:43:19;;;;;;;34.40;15.05;;;;;;;2.61;100.00;103519.13;5068210;28;20050;-52
2022/01/14 07:45:49;;;;;;;33.38;14.65;;;;;;;2.62;100.00;103508.75;5074327;28;20056;-56
2022/01/14 07:48:18;;;;;;;29.83;15.93;;;;;;;2.68;100.00;103507.94;5075436;28;20052;-54
2022/01/14 07:50:46;;;;;;;34.47;13.88;;;;;;;2.65;100.00;103511.34;5072181;28;20379;-53
2022/01/14 07:53:14;;;;;;;28.88;14.63;;;;;;;2.70;100.00;103519.22;5072914;28;20048;-56
2022/01/14 07:55:42;;;;;;;31.75;14.63;;;;;;;2.75;100.00;103520.13;5075533;28;20460;-56
2022/01/14 07:58:11;;;;;;;30.05;13.80;;;;;;;2.68;100.00;103519.19;5075762;28;20045;-57
2022/01/14 08:00:40;;;;;;;27.10;13.45;;;;;;;2.67;100.00;103517.47;5075192;28;20094;-56
2022/01/14 08:03:10;;;;;;;28.85;14.15;;;;;;;2.72;100.00;103522.69;5075289;28;20544;-55
2022/01/14 08:05:38;;;;;;;31.13;14.32;;;;;;;2.65;100.00;103511.34;5075562;28;20051;-57
2022/01/14 08:08:07;;;;;;;32.30;13.68;;;;;;;2.70;100.00;103509.69;5075543;28;20052;-52
2022/01/14 08:10:37;;;;;;;28.30;14.90;;;;;;;2.67;100.00;103509.66;5075029;28;20048;-57
2022/01/14 08:13:05;;;;;;;34.53;15.50;;;;;;;2.65;100.00;103515.69;5075213;28;20056;-57
2022/01/14 08:15:33;;;;;;;29.33;13.57;;;;;;;2.71;100.00;103515.75;5074657;28;20056;-53
2022/01/14 08:18:02;;;;;;;30.20;14.45;;;;;;;2.76;100.00;103529.66;5074885;28;20044;-54
2022/01/14 08:20:31;;;;;;;29.88;14.35;;;;;;;2.77;100.00;103543.53;5073659;28;20048;-56
2022/01/14 08:23:00;;;;;;;30.52;13.48;;;;;;;2.77;100.00;103543.53;5075276;28;20047;-55
2022/01/14 08:25:28;;;;;;;29.08;13.30;;;;;;;2.77;100.00;103544.41;5075099;28;20052;-52
2022/01/14 08:27:57;;;;;;;27.58;14.00;;;;;;;2.80;100.00;103547.03;5074924;28;20055;-56
2022/01/14 08:30:25;;;;;;;27.23;13.20;;;;;;;2.70;100.00;103548.69;5074757;28;20502;-54
2022/01/14 08:32:53;;;;;;;29.90;14.18;;;;;;;2.76;100.00;103565.19;5074851;28;20147;-53
2022/01/14 08:35:21;;;;;;;32.20;13.77;;;;;;;2.78;100.00;103556.56;5074859;28;20530;-55
2022/01/14 08:37:51;;;;;;;26.40;13.07;;;;;;;2.75;100.00;103556.50;5074598;28;20045;-56
2022/01/14 08:40:19;;;;;;;31.75;14.10;;;;;;;2.78;100.00;103553.97;5071078;28;20511;-54
2022/01/14 08:42:52;;;;;;;27.38;12.95;;;;;;;2.81;100.00;103551.41;5071232;28;20056;-56
2022/01/14 08:45:22;;;;;;;27.92;13.10;;;;;;;2.84;100.00;103541.00;5074647;28;20049;-56
2022/01/14 08:47:52;;;;;;;30.65;14.55;;;;;;;2.83;100.00;103549.66;5074628;28;20063;-56
2022/01/14 08:50:22;;;;;;;28.48;13.55;;;;;;;2.85;100.00;103549.69;5074517;28;20048;-57
2022/01/14 08:52:52;;;;;;;29.73;14.68;;;;;;;2.86;100.00;103551.44;5074650;28;20056;-51
2022/01/14 08:55:22;;;;;;;29.40;13.60;;;;;;;2.90;100.00;103560.13;5073355;28;20040;-53
2022/01/14 08:57:51;;;;;;;27.77;13.30;;;;;;;2.93;100.00;103570.56;5071137;28;20055;-54
2022/01/14 09:00:21;;;;;;;27.40;13.35;;;;;;;2.91;100.00;103552.34;5071338;28;20045;-55
2022/01/14 09:02:50;;;;;;;27.77;12.80;;;;;;;2.96;100.00;103561.09;5074582;28;20506;-54
2022/01/14 09:05:19;;;;;;;27.80;13.00;;;;;;;3.00;100.00;103569.75;5074362;28;20418;-53
2022/01/14 09:07:48;;;;;;;29.27;14.13;;;;;;;2.99;100.00;103581.91;5073980;28;20053;-57
2022/01/14 09:10:18;;;;;;;28.77;13.57;;;;;;;2.98;100.00;103556.75;5070190;28;20091;-55
2022/01/14 09:12:47;;;;;;;30.50;14.38;;;;;;;2.96;100.00;103550.69;5072383;28;20044;-53
2022/01/14 09:15:15;;;;;;;30.15;13.82;;;;;;;2.98;100.00;103555.88;5074015;28;20048;-57
2022/01/14 09:17:43;;;;;;;31.67;12.63;;;;;;;3.01;100.00;103563.72;5073700;28;20044;-57
2022/01/14 09:20:15;;;;;;;30.10;14.20;;;;;;;3.03;100.00;103557.69;5073826;28;20054;-54
2022/01/14 09:22:51;;;;;;;29.38;14.15;;;;;;;3.04;100.00;103566.34;5073829;28;20048;-57
2022/01/14 09:25:21;;;;;;;27.20;13.65;;;;;;;3.11;100.00;103560.38;5073933;28;20047;-56
2022/01/14 09:27:51;;;;;;;29.13;13.90;;;;;;;3.14;100.00;103556.91;5073922;28;20045;-57
2022/01/14 09:30:21;;;;;;;30.50;13.57;;;;;;;3.07;100.00;103555.09;5073646;28;20044;-53
2022/01/14 09:32:50;;;;;;;29.73;14.30;;;;;;;3.09;100.00;103559.47;5073604;28;20503;-57
2022/01/14 09:35:18;;;;;;;29.80;14.32;;;;;;;3.12;100.00;103561.22;5073580;28;20040;-55
2022/01/14 09:37:48;;;;;;;30.13;13.82;;;;;;;3.18;100.00;103562.16;5073123;28;20040;-52
2022/01/14 09:40:16;;;;;;;31.95;13.93;;;;;;;3.18;100.00;103559.56;5072099;28;20052;-55
2022/01/14 09:42:48;;;;;;;27.08;13.27;;;;;;;3.19;100.00;103563.00;5073173;28;20045;-57
2022/01/14 09:45:17;;;;;;;29.58;13.85;;;;;;;3.16;100.00;103570.78;5067399;28;20414;-54
2022/01/14 09:47:49;;;;;;;29.27;13.65;;;;;;;3.20;100.00;103567.38;5070594;28;20407;-55
2022/01/14 09:50:17;;;;;;;33.28;14.18;;;;;;;3.25;100.00;103562.22;5073125;28;20045;-53
2022/01/14 09:52:49;;;;;;;29.40;14.75;;;;;;;3.31;100.00;103570.97;5073137;28;20126;-55
2022/01/14 09:55:18;;;;;;;31.50;14.05;;;;;;;3.31;100.00;103570.06;5073222;28;20040;-54
2022/01/14 09:57:49;;;;;;;27.67;13.32;;;;;;;3.36;100.00;103570.97;5069381;28;20075;-53
2022/01/14 10:00:17;;;;;;;28.08;12.48;;;;;;;3.36;100.00;103571.84;5068021;28;20067;-54
2022/01/14 10:02:45;;;;;;;36.33;15.13;;;;;;;3.36;100.00;103576.19;5072884;28;20499;-53
2022/01/14 10:05:33;;;;;;;29.45;12.65;;;;;;;3.37;100.00;103588.34;5072941;28;20443;-54
2022/01/14 10:08:16;;;;;;;31.55;15.35;;;;;;;3.36;100.00;103574.44;5072648;28;20498;-54
2022/01/14 10:10:46;;;;;;;29.20;12.98;;;;;;;3.39;100.00;103568.41;5073062;28;20063;-52
2022/01/14 10:13:19;;;;;;;29.13;13.75;;;;;;;3.45;100.00;103571.06;5071208;28;20060;-54
2022/01/14 10:15:48;;;;;;;;;;;;;;;3.42;100.00;103573.63;5067870;28;20044;-52
2022/01/14 10:18:17;;;;;;;31.17;14.23;;;;;;;3.44;100.00;103578.88;5071728;28;19924;-54
2022/01/14 10:20:46;;;;;;;25.92;13.27;;;;;;;3.38;100.00;103583.16;5072619;28;20044;-54
2022/01/14 10:23:15;;;;;;;36.22;15.55;;;;;;;3.42;100.00;103585.78;5072677;28;20063;-54
2022/01/14 10:25:56;;;;;;;34.28;16.17;;;;;;;3.49;100.00;103578.03;5072852;28;20060;-54
2022/01/14 10:28:25;;;;;;;34.33;16.58;;;;;;;3.52;100.00;103585.88;5072660;28;20130;-54
2022/01/14 10:30:54;;;;;;;31.30;15.52;;;;;;;3.53;100.00;103578.91;5072451;28;20056;-54
2022/01/14 10:33:29;;;;;;;31.65;15.10;;;;;;;3.47;100.00;103574.53;5072594;28;20048;-55
2022/01/14 10:35:58;;;;;;;31.63;14.75;;;;;;;3.47;100.00;103571.94;5072935;28;20455;-55
2022/01/14 10:38:37;;;;;;;31.45;15.50;;;;;;;3.45;100.00;103564.97;5070213;28;20479;-54
2022/01/14 10:41:08;;;;;;;32.25;14.75;;;;;;;3.49;100.00;103570.22;5068923;28;20048;-54
2022/01/14 10:43:39;;;;;;;39.33;15.98;;;;;;;3.54;100.00;103573.75;5071488;28;20044;-55
2022/01/14 10:46:12;;;;;;;27.25;14.13;;;;;;;3.54;100.00;103570.25;5072624;28;20060;-53
2022/01/14 10:48:41;;;;;;;;;;;;;;;3.54;100.00;103557.25;5072989;28;20052;-54
2022/01/14 10:51:11;;;;;;;31.17;15.15;;;;;;;3.58;100.00;103563.34;5070854;28;19967;-55
2022/01/14 10:53:41;;;;;;;30.60;14.00;;;;;;;3.60;100.00;103564.22;5068523;28;20503;-55
2022/01/14 10:56:12;;;;;;;30.55;14.60;;;;;;;3.63;100.00;103559.94;5072064;28;20044;-54
2022/01/14 10:58:43;;;;;;;29.67;14.45;;;;;;;3.61;100.00;103558.16;5072627;28;20459;-54
2022/01/14 11:01:14;;;;;;;32.58;14.57;;;;;;;3.65;100.00;103545.19;5070935;28;20045;-53
2022/01/14 11:03:45;;;;;;;30.88;14.20;;;;;;;3.66;100.00;103546.06;5069938;28;20040;-53
2022/01/14 11:06:22;;;;;;;31.10;14.95;;;;;;;3.73;100.00;103545.25;5068958;28;20056;-53
2022/01/14 11:08:56;;;;;;;37.95;15.45;;;;;;;3.74;100.00;103557.41;5071703;28;20044;-52
2022/01/14 11:11:26;;;;;;;29.48;13.73;;;;;;;3.78;100.00;103553.97;5071938;28;20056;-53
2022/01/14 11:13:56;;;;;;;25.85;14.60;;;;;;;3.81;100.00;103556.56;5069676;28;20076;-53
2022/01/14 11:16:25;;;;;;;29.88;15.95;;;;;;;3.80;100.00;103552.22;5066564;28;20095;-53
2022/01/14 11:18:57;;;;;;;30.95;14.70;;;;;;;3.75;100.00;103551.34;5073980;28;20036;-50
2022/01/14 11:24:14;;;;;;;29.17;14.48;;;;;;;3.79;100.00;103554.81;5064617;28;21046;-54
2022/01/14 11:26:44;;;;;;;30.10;13.95;;;;;;;3.78;100.00;103564.38;5076142;28;20063;-52
2022/01/14 11:29:18;;;;;;;30.77;14.88;;;;;;;3.78;100.00;103564.38;5076101;28;20044;-53
2022/01/14 11:31:46;;;;;;;31.95;14.27;;;;;;;3.78;100.00;103559.16;5076042;28;20059;-52
2022/01/14 11:34:33;;;;;;;28.35;15.02;;;;;;;3.77;100.00;103552.22;5075907;28;20129;-53